This is the latest recevied weather packets stored in our database for station/object OE-11307. If no packets are shown the sender has not sent any weather packets the latest 10 day(s).
| Time | Temp. | Humidity | Pressure | Rain* | Wind** | Luminosity | Snow |
|---|---|---|---|---|---|---|---|
| 1787684114 | 13.89° C | 88% | 851.7 hPa | 0 mm | - | 0 W/m² | - |
| 1787683287 | 14.44° C | 88% | 851.7 hPa | 0 mm | - | 0 W/m² | - |
| 1787682314 | 14.44° C | 88% | 851.6 hPa | 0 mm | - | 0 W/m² | - |
| 1787681487 | 15° C | 88% | 851.6 hPa | 0 mm | - | 6 W/m² | - |
| 1787681114 | 15° C | 88% | 851.5 hPa | 0 mm | - | 6 W/m² | - |
| 1787680514 | 15.56° C | 86% | 851.6 hPa | 0 mm | - | 19 W/m² | - |
| 1787679687 | 15.56° C | 86% | 851.5 hPa | 0 mm | - | 32 W/m² | - |
| 1787679314 | 16.11° C | 85% | 851.4 hPa | 0 mm | - | 50 W/m² | - |
| 1787678714 | 16.67° C | 82% | 851.4 hPa | 0 mm | - | 69 W/m² | - |
| 1787677887 | 17.22° C | 78% | 851.4 hPa | 0 mm | - | 145 W/m² | - |
| 1787677514 | 17.78° C | 78% | 851.5 hPa | 0 mm | - | 233 W/m² | - |
| 1787676913 | 17.78° C | 77% | 851.5 hPa | 0 mm | - | 221 W/m² | - |
| 1787676087 | 17.78° C | 74% | 851.5 hPa | 0 mm | - | 258 W/m² | - |
| 1787675713 | 17.22° C | 81% | 851.5 hPa | 0 mm | - | 183 W/m² | - |
| 1787675113 | 16.67° C | 80% | 851.4 hPa | 0 mm | - | 189 W/m² | - |
| 1787674286 | 16.67° C | 86% | 851.4 hPa | 0 mm | - | 183 W/m² | - |
| 1787673914 | 16.67° C | 87% | 851.4 hPa | 0 mm | - | 158 W/m² | - |
| 1787673314 | 16.67° C | 83% | 851.4 hPa | 0 mm | - | 164 W/m² | - |
| 1787672487 | 16.67° C | 81% | 851.4 hPa | 0 mm | - | 265 W/m² | - |
| 1787672114 | 16.67° C | 81% | 851.4 hPa | 0 mm | - | 214 W/m² | - |
| 1787671514 | 16.67° C | 78% | 851.4 hPa | 0 mm | - | 277 W/m² | - |
| 1787670687 | 16.67° C | 79% | 851.3 hPa | 0 mm | - | 315 W/m² | - |
| 1787670314 | 16.67° C | 82% | 851.3 hPa | 0 mm | - | 410 W/m² | - |
| 1787669714 | 16.11° C | 84% | 851.2 hPa | 0 mm | - | 277 W/m² | - |
| 1787668887 | 15.56° C | 85% | 851.1 hPa | 0 mm | - | 176 W/m² | - |
* Rain latest hour (hover to see other rain measurements)
** Current wind speed in m/s (hover to see current wind gust speed)